Time;durP1;ratioP1;P1;durP2;ratioP2;P2;SDS_P1;SDS_P2;PMS_P1;PMS_P2;Temp;Humidity;BMP_temperature;BMP_pressure;BME280_temperature;BME280_humidity;BME280_pressure;Samples;Min_cycle;Max_cycle;Signal;HPM_P1;HPM_P2
2022/05/07 00:02:08;;;;;;;;;;;;;;;18.15;51.00;101312.22;5003162;27;98448;-64
2022/05/07 00:04:37;;;;;;;;;;;;;;;18.12;51.00;101316.38;5002377;27;97886;-64
2022/05/07 00:07:04;;;;;;;;;;;;;;;18.09;50.99;101307.97;5002778;27;118111;-63
2022/05/07 00:09:30;;;;;;;;;;;;;;;18.07;51.11;101310.97;5002003;27;120711;-64
2022/05/07 00:11:56;;;;;;;;;;;;;;;18.05;51.05;101312.41;4993452;27;119720;-64
2022/05/07 00:14:22;;;;;;;;;;;;;;;18.03;51.24;101309.16;4985525;27;126411;-63
2022/05/07 00:19:33;;;;;;;;;;;;;;;17.97;51.25;101313.88;5002750;27;97895;-63
2022/05/07 00:21:59;;;;;;;;;;;;;;;17.94;51.11;101309.00;5004167;27;98445;-63
2022/05/07 00:24:25;;;;;;;;;;;;;;;17.92;51.28;101311.25;4994507;27;101251;-65
2022/05/07 00:26:51;;;;;;;;;;;;;;;17.89;51.33;101315.38;4982317;27;117384;-64
2022/05/07 00:29:16;;;;;;;;;;;;;;;17.87;51.42;101314.03;4981429;28;128397;-64
2022/05/07 00:31:42;;;;;;;;;;;;;;;17.84;51.40;101312.72;4982851;28;98757;-63
2022/05/07 00:34:08;;;;;;;;;;;;;;;17.82;51.47;101312.19;4982947;27;127649;-63
2022/05/07 00:36:34;;;;;;;;;;;;;;;17.81;51.32;101309.78;5004034;27;97902;-64
2022/05/07 00:39:00;;;;;;;;;;;;;;;17.79;51.33;101314.69;5001026;27;98414;-63
2022/05/07 00:41:26;;;;;;;;;;;;;;;17.75;51.56;101305.47;4983093;27;114665;-65
2022/05/07 00:43:52;;;;;;;;;;;;;;;17.74;51.49;101314.75;5000571;27;127442;-64
2022/05/07 00:46:20;;;;;;;;;;;;;;;17.72;51.54;101311.50;4981160;28;97897;-64
2022/05/07 00:48:46;;;;;;;;;;;;;;;17.67;51.63;101310.47;4962703;28;123150;-63
2022/05/07 00:53:56;;;;;;;;;;;;;;;17.63;51.62;101303.97;4980626;27;97864;-64
2022/05/07 00:56:23;;;;;;;;;;;;;;;17.60;51.62;101304.56;4983133;27;118259;-64
2022/05/07 00:58:49;;;;;;;;;;;;;;;17.57;51.78;101304.38;5002888;27;98250;-64
2022/05/07 01:01:15;;;;;;;;;;;;;;;17.55;51.82;101304.63;4979702;27;128833;-65
2022/05/07 01:03:41;;;;;;;;;;;;;;;17.52;51.78;101307.94;4996582;27;101332;-64
2022/05/07 01:06:09;;;;;;;;;;;;;;;17.50;51.73;101306.63;4979530;28;100633;-65
2022/05/07 01:08:35;;;;;;;;;;;;;;;17.48;51.89;101300.66;4980616;28;99227;-64
2022/05/07 01:11:01;;;;;;;;;;;;;;;17.46;51.90;101308.31;4981853;27;98893;-64
2022/05/07 01:13:27;;;;;;;;;;;;;;;17.43;51.98;101307.78;4981363;28;124906;-63
2022/05/07 01:15:56;;;;;;;;;;;;;;;17.40;51.75;101300.19;4996227;27;110490;-64
2022/05/07 01:18:22;;;;;;;;;;;;;;;17.39;51.92;101301.31;5001359;27;98277;-63
2022/05/07 01:20:48;;;;;;;;;;;;;;;17.36;52.06;101301.09;5001391;27;128775;-65
2022/05/07 01:23:15;;;;;;;;;;;;;;;17.33;51.91;101297.03;5000469;27;98168;-63
2022/05/07 01:25:41;;;;;;;;;;;;;;;17.31;52.02;101290.25;4983482;27;98228;-63
2022/05/07 01:28:07;;;;;;;;;;;;;;;17.29;52.09;101296.00;5000607;27;128291;-63
2022/05/07 01:30:34;;;;;;;;;;;;;;;17.27;52.08;101291.94;5000300;27;98864;-63
2022/05/07 01:32:59;;;;;;;;;;;;;;;17.25;52.21;101296.88;5000660;27;121318;-63
2022/05/07 01:35:26;;;;;;;;;;;;;;;17.21;52.20;101287.66;5000768;27;117463;-64
2022/05/07 01:37:52;;;;;;;;;;;;;;;17.18;52.24;101295.31;5001593;27;98935;-64
2022/05/07 01:40:18;;;;;;;;;;;;;;;17.17;52.03;101295.59;5001189;27;126225;-63
2022/05/07 01:42:43;;;;;;;;;;;;;;;17.14;52.01;101299.72;4999865;27;128915;-63
2022/05/07 01:45:09;;;;;;;;;;;;;;;17.11;52.05;101294.88;4991787;27;117655;-64
2022/05/07 01:50:26;;;;;;;;;;;;;;;17.07;52.25;101299.28;5000579;27;118280;-63
2022/05/07 01:52:52;;;;;;;;;;;;;;;17.05;52.31;101296.00;4999925;27;122920;-64
2022/05/07 01:55:17;;;;;;;;;;;;;;;17.03;52.39;101295.50;4990981;27;117289;-63
2022/05/07 01:57:43;;;;;;;;;;;;;;;17.02;52.23;101295.81;4980827;27;127309;-64
2022/05/07 02:00:10;;;;;;;;;;;;;;;17.00;52.42;101298.00;4981756;27;127178;-64
2022/05/07 02:02:36;;;;;;;;;;;;;;;16.96;52.37;101295.03;4999440;27;98427;-64
2022/05/07 02:05:01;;;;;;;;;;;;;;;16.94;52.38;101294.53;5000687;27;104800;-64
2022/05/07 02:07:27;;;;;;;;;;;;;;;16.92;52.30;101308.41;4999799;27;128310;-63
2022/05/07 02:09:53;;;;;;;;;;;;;;;16.89;52.34;101300.81;4999179;27;126739;-63
2022/05/07 02:12:19;;;;;;;;;;;;;;;16.88;52.56;101303.84;4988548;27;126954;-63
2022/05/07 02:14:45;;;;;;;;;;;;;;;16.86;52.36;101306.88;4982877;27;116542;-64
2022/05/07 02:17:11;;;;;;;;;;;;;;;16.84;52.39;101306.34;4991818;27;128669;-63
2022/05/07 02:19:37;;;;;;;;;;;;;;;16.83;52.33;101302.00;4980876;27;98321;-63
2022/05/07 02:22:03;;;;;;;;;;;;;;;16.81;52.35;101306.91;4983327;27;127634;-63
2022/05/07 02:24:29;;;;;;;;;;;;;;;16.79;52.48;101308.31;4998570;27;112739;-64
2022/05/07 02:26:55;;;;;;;;;;;;;;;16.78;52.41;101309.38;4981655;28;98351;-64
2022/05/07 02:29:21;;;;;;;;;;;;;;;16.76;52.43;101303.44;4979955;27;98243;-65
2022/05/07 02:32:06;;;;;;;;;;;;;;;16.73;52.80;101307.53;5000305;27;127566;-64
2022/05/07 02:34:32;;;;;;;;;;;;;;;16.70;52.43;101305.34;4999399;27;98115;-65
2022/05/07 02:36:58;;;;;;;;;;;;;;;16.68;52.56;101305.66;4982167;27;98379;-66
2022/05/07 02:39:24;;;;;;;;;;;;;;;16.67;52.49;101308.69;4980259;27;98794;-65
2022/05/07 02:44:35;;;;;;;;;;;;;;;16.62;52.79;101300.53;4980965;27;97884;-61
2022/05/07 02:47:01;;;;;;;;;;;;;;;16.60;52.51;101303.56;5000427;27;127047;-64
2022/05/07 02:49:27;;;;;;;;;;;;;;;16.59;52.44;101310.09;4999516;27;128247;-65
2022/05/07 02:51:53;;;;;;;;;;;;;;;16.56;52.73;101298.97;4999923;27;128410;-65
2022/05/07 02:54:19;;;;;;;;;;;;;;;16.54;52.65;101301.16;4981540;27;99800;-64
2022/05/07 02:56:44;;;;;;;;;;;;;;;16.53;52.70;101299.56;4980552;27;127423;-63
2022/05/07 02:59:10;;;;;;;;;;;;;;;16.50;52.79;101294.69;4979264;28;127100;-65
2022/05/07 03:01:36;;;;;;;;;;;;;;;16.48;52.70;101296.88;4993666;27;127663;-64
2022/05/07 03:04:03;;;;;;;;;;;;;;;16.47;52.78;101309.69;5000637;27;116491;-64
2022/05/07 03:06:28;;;;;;;;;;;;;;;16.45;52.57;101304.50;5002060;27;108109;-63
2022/05/07 03:08:54;;;;;;;;;;;;;;;16.43;52.53;101303.19;4990393;27;126991;-63
2022/05/07 03:11:20;;;;;;;;;;;;;;;16.41;52.90;101310.81;4983278;27;127738;-63
2022/05/07 03:13:46;;;;;;;;;;;;;;;16.39;52.64;101313.84;4983971;28;104334;-65
2022/05/07 03:16:12;;;;;;;;;;;;;;;16.36;52.94;101311.69;4982518;28;122475;-65
2022/05/07 03:18:38;;;;;;;;;;;;;;;16.35;52.76;101314.69;4991385;27;127920;-64
2022/05/07 03:21:04;;;;;;;;;;;;;;;16.33;52.92;101323.13;5003214;27;127592;-63
2022/05/07 03:23:30;;;;;;;;;;;;;;;16.32;52.96;101318.78;4984615;27;118999;-63
2022/05/07 03:25:56;;;;;;;;;;;;;;;16.31;52.67;101319.06;4982847;28;128262;-64
2022/05/07 03:28:22;;;;;;;;;;;;;;;16.30;52.76;101309.28;4989547;27;98534;-65
2022/05/07 03:30:47;;;;;;;;;;;;;;;16.28;52.56;101316.94;5002798;27;109627;-63
2022/05/07 03:33:14;;;;;;;;;;;;;;;16.26;52.59;101317.19;5000795;27;115574;-63
2022/05/07 03:35:40;;;;;;;;;;;;;;;16.26;52.57;101321.81;5001896;27;98496;-63
2022/05/07 03:38:06;;;;;;;;;;;;;;;16.24;52.46;101315.88;5000507;27;100953;-63
2022/05/07 03:40:32;;;;;;;;;;;;;;;16.23;52.82;101315.06;5002345;27;128239;-63
2022/05/07 03:42:58;;;;;;;;;;;;;;;16.23;52.55;101316.94;5003103;27;116655;-64
2022/05/07 03:45:24;;;;;;;;;;;;;;;16.22;52.61;101320.78;5001501;27;128192;-64
2022/05/07 03:47:50;;;;;;;;;;;;;;;16.21;52.50;101319.97;5000791;27;97974;-63
2022/05/07 03:50:16;;;;;;;;;;;;;;;16.22;52.47;101313.41;4983668;27;129195;-64
2022/05/07 03:55:27;;;;;;;;;;;;;;;16.22;52.43;101313.41;4989000;27;97916;-65
2022/05/07 03:57:54;;;;;;;;;;;;;;;16.24;52.69;101318.59;4981800;27;100400;-63
2022/05/07 04:00:20;;;;;;;;;;;;;;;16.26;52.50;101325.34;5002251;27;98705;-65
2022/05/07 04:02:46;;;;;;;;;;;;;;;16.28;52.60;101320.47;5003035;27;117298;-64
2022/05/07 04:05:12;;;;;;;;;;;;;;;16.30;52.54;101325.59;5000716;27;127729;-64
2022/05/07 04:07:38;;;;;;;;;;;;;;;16.30;52.49;101323.69;5001975;27;128090;-63
2022/05/07 04:10:04;;;;;;;;;;;;;;;16.33;52.59;101322.31;5001128;27;103910;-64
2022/05/07 04:12:30;;;;;;;;;;;;;;;16.35;52.71;101320.94;4988412;27;117578;-64
2022/05/07 04:15:00;;;;;;;;;;;;;;;16.39;52.33;101319.28;4980321;27;128019;-64
2022/05/07 04:17:26;;;;;;;;;;;;;;;16.43;52.36;101325.78;4982370;27;98365;-65
2022/05/07 04:19:52;;;;;;;;;;;;;;;16.46;52.35;101324.38;4997829;27;121436;-65
2022/05/07 04:22:18;;;;;;;;;;;;;;;16.50;52.49;101321.88;5002226;27;114468;-64
2022/05/07 04:24:44;;;;;;;;;;;;;;;16.54;52.28;101323.75;5002291;27;98982;-65
2022/05/07 04:27:10;;;;;;;;;;;;;;;16.57;52.57;101325.09;5003104;27;98938;-65
2022/05/07 04:29:36;;;;;;;;;;;;;;;16.63;52.37;101329.41;4987430;27;126638;-63
2022/05/07 04:32:02;;;;;;;;;;;;;;;16.66;52.35;101332.38;4982348;27;117496;-65
2022/05/07 04:34:29;;;;;;;;;;;;;;;16.68;52.52;101326.63;4981305;27;120716;-64
2022/05/07 04:36:56;;;;;;;;;;;;;;;16.69;52.48;101328.22;5002413;27;98967;-63
2022/05/07 04:39:22;;;;;;;;;;;;;;;16.68;52.44;101327.44;4990514;27;126082;-65
2022/05/07 04:41:48;;;;;;;;;;;;;;;16.68;52.50;101335.59;4982378;28;117894;-63
2022/05/07 04:44:14;;;;;;;;;;;;;;;16.67;52.65;101331.25;4979378;28;128041;-63
2022/05/07 04:46:39;;;;;;;;;;;;;;;16.67;52.85;101328.53;4977970;27;128157;-64
2022/05/07 04:49:06;;;;;;;;;;;;;;;16.65;52.87;101338.88;4980044;27;126456;-65
2022/05/07 04:51:32;;;;;;;;;;;;;;;16.65;53.04;101322.56;4979937;27;97973;-65
2022/05/07 04:53:58;;;;;;;;;;;;;;;16.67;53.07;101341.34;4978750;27;99860;-65
2022/05/07 04:56:27;;;;;;;;;;;;;;;16.67;53.03;101336.69;4976837;27;98300;-63
2022/05/07 04:58:53;;;;;;;;;;;;;;;16.67;53.08;101344.88;4982667;27;98685;-65
2022/05/07 05:01:19;;;;;;;;;;;;;;;16.72;52.99;101337.75;4981732;27;117629;-64
2022/05/07 05:03:45;;;;;;;;;;;;;;;16.73;52.92;101342.09;4976713;27;98721;-63
2022/05/07 05:06:11;;;;;;;;;;;;;;;16.75;53.38;101345.38;4976481;27;128121;-65
2022/05/07 05:08:37;;;;;;;;;;;;;;;16.86;53.09;101342.25;4979476;27;126752;-64
2022/05/07 05:11:02;;;;;;;;;;;;;;;16.99;52.86;101348.94;4978349;27;117608;-64
2022/05/07 05:13:28;;;;;;;;;;;;;;;17.08;52.80;101344.47;4975288;27;127902;-63
2022/05/07 05:15:55;;;;;;;;;;;;;;;17.18;52.87;101346.28;4978091;27;106330;-63
2022/05/07 05:18:21;;;;;;;;;;;;;;;17.28;52.51;101345.31;4980199;27;98245;-64
2022/05/07 05:20:46;;;;;;;;;;;;;;;17.38;52.49;101348.75;4981581;27;117378;-64
2022/05/07 05:23:12;;;;;;;;;;;;;;;17.56;52.27;101346.34;4977933;27;98242;-64
2022/05/07 05:25:43;;;;;;;;;;;;;;;17.72;52.36;101338.75;4977720;27;98614;-63
2022/05/07 05:28:11;;;;;;;;;;;;;;;17.89;52.01;101350.00;4978009;27;97917;-64
2022/05/07 05:30:37;;;;;;;;;;;;;;;18.08;52.04;101350.00;4978594;27;98112;-64
2022/05/07 05:33:03;;;;;;;;;;;;;;;18.24;51.76;101342.38;4975509;27;107582;-63
2022/05/07 05:35:29;;;;;;;;;;;;;;;18.43;51.49;101348.63;4977818;27;99198;-64
2022/05/07 05:37:55;;;;;;;;;;;;;;;18.63;51.31;101352.91;4978117;27;97998;-63
2022/05/07 05:40:21;;;;;;;;;;;;;;;18.82;50.94;101350.13;4983295;27;116665;-64
2022/05/07 05:42:47;;;;;;;;;;;;;;;19.01;50.75;101355.50;4977897;27;98370;-64
2022/05/07 05:45:13;;;;;;;;;;;;;;;19.21;50.64;101359.78;4977389;27;128123;-65
2022/05/07 05:47:39;;;;;;;;;;;;;;;19.37;50.43;101361.91;4977826;27;98013;-65
2022/05/07 05:50:05;;;;;;;;;;;;;;;19.58;50.21;101358.75;4977806;27;118412;-63
2022/05/07 05:52:32;;;;;;;;;;;;;;;19.77;49.87;101355.91;4976190;27;126277;-65
2022/05/07 05:54:58;;;;;;;;;;;;;;;20.00;49.73;101356.72;4977620;27;98552;-65
2022/05/07 05:57:24;;;;;;;;;;;;;;;20.24;49.24;101360.00;4977168;27;127549;-65
2022/05/07 05:59:50;;;;;;;;;;;;;;;20.50;48.76;101371.13;4983381;27;99464;-64
2022/05/07 06:02:18;;;;;;;;;;;;;;;20.78;48.64;101362.75;4978427;27;98839;-65
2022/05/07 06:04:44;;;;;;;;;;;;;;;21.06;47.73;101366.09;4977245;27;98357;-64
2022/05/07 06:07:10;;;;;;;;;;;;;;;21.26;46.78;101370.22;4976212;27;127933;-65
2022/05/07 06:09:36;;;;;;;;;;;;;;;21.43;46.04;101369.50;4984169;27;97948;-64
2022/05/07 06:12:01;;;;;;;;;;;;;;;21.59;45.81;101369.84;4976263;27;127375;-65
2022/05/07 06:14:27;;;;;;;;;;;;;;;21.81;45.25;101370.53;4975941;27;121523;-66
2022/05/07 06:16:53;;;;;;;;;;;;;;;22.05;44.75;101372.00;4977283;27;98895;-66
2022/05/07 06:19:19;;;;;;;;;;;;;;;22.28;44.27;101368.00;4984400;27;117687;-64
2022/05/07 06:21:45;;;;;;;;;;;;;;;22.48;43.76;101363.75;4974858;27;126070;-65
2022/05/07 06:29:40;;;;;;;;;;;;;;;23.52;42.26;101357.03;4984616;27;97987;-64
2022/05/07 06:32:06;;;;;;;;;;;;;;;23.86;41.92;101344.22;4975782;27;124685;-65
2022/05/07 06:34:32;;;;;;;;;;;;;;;24.15;41.21;101352.34;4979536;27;125642;-64
2022/05/07 06:36:58;;;;;;;;;;;;;;;24.55;40.69;101348.28;4979698;27;109560;-65
2022/05/07 06:39:24;;;;;;;;;;;;;;;25.00;40.47;101336.41;4976347;27;116049;-65
2022/05/07 06:41:50;;;;;;;;;;;;;;;25.48;39.79;101343.06;4980630;27;127334;-65
2022/05/07 06:44:16;;;;;;;;;;;;;;;25.89;39.21;101339.97;4982193;27;124234;-65
2022/05/07 06:46:42;;;;;;;;;;;;;;;26.19;38.82;101345.16;4984267;27;108181;-65
2022/05/07 06:49:08;;;;;;;;;;;;;;;26.46;38.38;101346.34;4980973;27;97965;-64
2022/05/07 06:51:35;;;;;;;;;;;;;;;26.76;38.24;101351.44;4983322;27;128739;-64
2022/05/07 06:54:00;;;;;;;;;;;;;;;27.02;37.82;101357.22;4977366;27;98327;-65
2022/05/07 06:56:26;;;;;;;;;;;;;;;27.37;37.42;101357.31;4978229;27;98654;-64
2022/05/07 06:58:52;;;;;;;;;;;;;;;27.74;37.06;101358.94;4980549;27;97949;-65
2022/05/07 07:01:18;;;;;;;;;;;;;;;28.04;36.67;101357.19;4981861;27;98221;-65
2022/05/07 07:03:44;;;;;;;;;;;;;;;28.39;36.33;101356.31;4982667;27;128240;-64
2022/05/07 07:06:10;;;;;;;;;;;;;;;28.75;36.03;101362.50;4978993;27;127103;-65
2022/05/07 07:08:36;;;;;;;;;;;;;;;29.06;35.70;101361.47;4977351;27;116056;-65
2022/05/07 07:11:02;;;;;;;;;;;;;;;29.45;34.83;101366.81;4980035;27;98622;-65
2022/05/07 07:13:28;;;;;;;;;;;;;;;29.86;34.71;101369.75;4981865;27;105910;-64
2022/05/07 07:15:54;;;;;;;;;;;;;;;30.31;34.23;101364.00;4975274;27;123687;-65
2022/05/07 07:18:20;;;;;;;;;;;;;;;30.67;34.05;101363.53;4977298;27;97934;-63
2022/05/07 07:20:49;;;;;;;;;;;;;;;31.08;33.38;101367.09;4976276;27;127242;-65
2022/05/07 07:23:15;;;;;;;;;;;;;;;31.29;33.33;101366.47;4984062;27;98455;-62
2022/05/07 07:25:42;;;;;;;;;;;;;;;31.68;32.97;101363.13;4975824;27;98884;-64
2022/05/07 07:28:08;;;;;;;;;;;;;;;32.02;32.71;101358.91;4975000;27;98186;-64
2022/05/07 07:30:34;;;;;;;;;;;;;;;32.00;32.83;101364.09;4984750;27;99199;-64
2022/05/07 07:33:01;;;;;;;;;;;;;;;32.24;32.37;101358.97;4977777;27;98514;-65
2022/05/07 07:35:27;;;;;;;;;;;;;;;33.05;31.81;101360.28;4976877;27;98203;-65
2022/05/07 07:37:53;;;;;;;;;;;;;;;32.63;31.99;101353.50;4977893;27;100263;-65
2022/05/07 07:40:19;;;;;;;;;;;;;;;32.24;32.50;101353.41;4986339;27;98047;-65
2022/05/07 07:42:45;;;;;;;;;;;;;;;32.41;32.15;101355.44;4976535;27;117212;-65
2022/05/07 07:47:56;;;;;;;;;;;;;;;33.24;31.66;101354.28;4972619;27;98259;-62
2022/05/07 07:50:30;;;;;;;;;;;;;;;33.87;31.19;101351.69;4978041;27;98554;-63
2022/05/07 07:53:00;;;;;;;;;;;;;;;34.37;30.41;101351.47;4981424;27;99072;-65
2022/05/07 07:55:26;;;;;;;;;;;;;;;35.08;30.33;101344.53;4978971;27;98308;-63
2022/05/07 07:57:54;;;;;;;;;;;;;;;35.91;29.44;101350.00;4979663;27;98016;-63
2022/05/07 08:00:20;;;;;;;;;;;;;;;36.65;28.69;101344.56;4980768;27;99143;-63
2022/05/07 08:02:50;;;;;;;;;;;;;;;37.37;27.95;101346.09;4982307;27;98484;-63
2022/05/07 08:05:17;;;;;;;;;;;;;;;38.04;27.48;101343.94;4979210;27;98092;-63
2022/05/07 08:13:14;;;;;;;;;;;;;;;40.14;25.99;101348.88;4978986;27;97932;-63
2022/05/07 08:15:41;;;;;;;;;;;;;;;40.81;25.25;101353.56;4979468;27;98424;-63
2022/05/07 08:18:07;;;;;;;;;;;;;;;41.55;24.58;101348.53;4989875;27;98684;-63
2022/05/07 08:20:34;;;;;;;;;;;;;;;42.10;24.15;101348.84;4979121;27;111015;-63
2022/05/07 08:22:59;;;;;;;;;;;;;;;42.49;24.11;101338.00;4982993;27;98246;-63
2022/05/07 08:25:25;;;;;;;;;;;;;;;42.94;23.81;101342.94;4978433;27;125741;-63
2022/05/07 08:27:51;;;;;;;;;;;;;;;43.59;22.90;101340.88;4976689;27;117056;-63
2022/05/07 08:30:17;;;;;;;;;;;;;;;44.13;22.81;101335.50;4975839;27;126625;-63
2022/05/07 08:32:43;;;;;;;;;;;;;;;44.50;22.50;101334.03;4979234;27;128591;-64
2022/05/07 08:35:09;;;;;;;;;;;;;;;44.68;22.01;101332.38;4977986;27;126953;-63
2022/05/07 08:37:35;;;;;;;;;;;;;;;45.06;21.65;101318.19;4980687;27;117452;-63
2022/05/07 08:40:03;;;;;;;;;;;;;;;44.88;21.68;101318.31;4974023;27;128932;-63
2022/05/07 08:42:30;;;;;;;;;;;;;;;45.38;21.23;101320.56;4982362;27;98414;-63
2022/05/07 08:44:56;;;;;;;;;;;;;;;46.11;20.76;101327.47;4978920;27;98195;-63
2022/05/07 08:47:23;;;;;;;;;;;;;;;46.68;20.58;101313.50;4977361;27;117242;-63
2022/05/07 08:49:50;;;;;;;;;;;;;;;47.26;20.16;101321.41;4978191;27;98081;-63
2022/05/07 08:52:17;;;;;;;;;;;;;;;47.79;19.55;101315.16;4988197;27;114019;-63
2022/05/07 08:54:44;;;;;;;;;;;;;;;48.25;19.43;101313.38;4977662;27;98388;-63
2022/05/07 08:57:10;;;;;;;;;;;;;;;45.33;20.89;101295.66;4978943;27;112697;-63
2022/05/07 08:59:36;;;;;;;;;;;;;;;42.78;22.29;101284.53;4978732;27;98912;-63
2022/05/07 09:02:03;;;;;;;;;;;;;;;40.92;22.79;101282.56;4991777;27;128303;-62
2022/05/07 09:04:29;;;;;;;;;;;;;;;42.22;21.22;101294.16;4975907;27;98726;-63
2022/05/07 09:06:58;;;;;;;;;;;;;;;43.57;20.25;101298.00;4978046;27;118309;-63
2022/05/07 09:09:24;;;;;;;;;;;;;;;44.39;19.82;101308.25;4977964;27;98901;-63
2022/05/07 09:11:49;;;;;;;;;;;;;;;44.20;19.86;101301.84;4977198;27;104940;-63
2022/05/07 09:14:18;;;;;;;;;;;;;;;43.91;20.67;101299.66;4974928;27;128937;-63
2022/05/07 09:16:50;;;;;;;;;;;;;;;43.70;20.66;101298.59;4978583;27;97973;-63
2022/05/07 09:19:27;;;;;;;;;;;;;;;43.79;20.20;101287.22;4977999;27;98207;-63
2022/05/07 09:22:09;;;;;;;;;;;;;;;44.19;20.37;101293.81;4985637;27;99350;-63
2022/05/07 09:24:35;;;;;;;;;;;;;;;44.87;19.75;101284.69;4984473;27;98629;-63
2022/05/07 09:27:04;;;;;;;;;;;;;;;45.49;18.94;101287.41;4984466;27;116101;-63
2022/05/07 09:29:30;;;;;;;;;;;;;;;46.43;18.73;101285.72;4977088;27;98754;-63
2022/05/07 09:32:07;;;;;;;;;;;;;;;47.50;18.38;101287.69;4985602;27;99049;-63
2022/05/07 09:37:19;;;;;;;;;;;;;;;48.87;17.39;101277.28;4973746;27;98130;-63
2022/05/07 09:39:51;;;;;;;;;;;;;;;49.57;16.83;101275.53;4977194;27;98390;-63
2022/05/07 09:42:18;;;;;;;;;;;;;;;49.93;16.78;101273.66;4984834;27;116004;-63
2022/05/07 09:44:45;;;;;;;;;;;;;;;50.42;16.53;101267.50;4975359;27;126691;-64
2022/05/07 09:47:12;;;;;;;;;;;;;;;51.03;15.87;101257.78;4978825;27;97959;-64
2022/05/07 09:50:19;;;;;;;;;;;;;;;51.31;15.49;101260.44;4977182;27;98614;-64
2022/05/07 09:52:26;;;;;;;;;;;;;;;51.57;15.45;101251.34;4982736;27;99709;-64
2022/05/07 09:57:37;;;;;;;;;;;;;;;51.85;15.34;101248.16;4980020;27;98074;-64
2022/05/07 10:00:07;;;;;;;;;;;;;;;52.10;15.22;101246.06;4976986;27;98288;-64
2022/05/07 10:03:10;;;;;;;;;;;;;;;52.03;14.97;101246.66;4968921;27;98981;-64
2022/05/07 10:06:12;;;;;;;;;;;;;;;52.19;14.82;101237.03;4977686;27;98563;-64
2022/05/07 10:08:58;;;;;;;;;;;;;;;52.12;14.69;101228.25;4976590;27;116510;-64
2022/05/07 10:11:24;;;;;;;;;;;;;;;52.14;15.20;101228.50;4982501;27;99202;-64
2022/05/07 10:13:56;;;;;;;;;;;;;;;52.19;15.07;101230.53;4984919;27;127769;-63
2022/05/07 10:16:23;;;;;;;;;;;;;;;52.33;14.80;101226.44;4977643;27;97907;-63
2022/05/07 10:18:49;;;;;;;;;;;;;;;52.37;14.32;101212.53;4977775;27;98095;-64
2022/05/07 10:21:16;;;;;;;;;;;;;;;52.59;14.77;101220.09;4977869;27;123097;-64
2022/05/07 10:23:49;;;;;;;;;;;;;;;50.44;15.61;101204.72;4979693;27;98177;-64
2022/05/07 10:26:15;;;;;;;;;;;;;;;47.72;16.51;101197.84;4975949;27;99718;-63
2022/05/07 10:28:42;;;;;;;;;;;;;;;45.93;16.97;101189.00;4977705;27;98374;-63
2022/05/07 10:31:24;;;;;;;;;;;;;;;44.59;17.61;101186.25;4976496;27;98669;-63
2022/05/07 10:33:51;;;;;;;;;;;;;;;45.59;16.82;101193.41;4977711;27;99256;-63
2022/05/07 10:36:17;;;;;;;;;;;;;;;44.68;17.14;101195.97;4982691;27;98197;-63
2022/05/07 10:38:45;;;;;;;;;;;;;;;44.21;17.19;101192.69;4974876;27;98680;-63
2022/05/07 10:41:19;;;;;;;;;;;;;;;42.67;18.49;101201.28;4981981;27;98752;-64
2022/05/07 10:43:55;;;;;;;;;;;;;;;41.40;18.89;101193.56;4977644;27;98863;-63
2022/05/07 10:46:21;;;;;;;;;;;;;;;40.30;19.36;101200.41;4982226;27;98170;-63
2022/05/07 10:48:56;;;;;;;;;;;;;;;39.38;19.59;101188.81;4976944;27;98029;-63
2022/05/07 10:51:53;;;;;;;;;;;;;;;38.64;20.51;101198.16;4976432;27;98223;-63
2022/05/07 10:54:23;;;;;;;;;;;;;;;40.56;18.96;101192.63;4984412;27;98660;-63
2022/05/07 10:56:53;;;;;;;;;;;;;;;41.03;18.93;101192.53;4977179;27;97841;-63
2022/05/07 10:59:20;;;;;;;;;;;;;;;39.80;20.16;101191.53;4978448;27;97892;-63
2022/05/07 11:01:46;;;;;;;;;;;;;;;39.97;20.07;101187.34;4980207;27;98894;-63
2022/05/07 11:04:13;;;;;;;;;;;;;;;39.57;20.12;101192.63;4978353;27;97943;-63
2022/05/07 11:06:50;;;;;;;;;;;;;;;38.87;20.29;101193.50;4987987;27;98165;-63
2022/05/07 11:09:19;;;;;;;;;;;;;;;38.59;20.25;101189.44;4977572;27;97749;-63
2022/05/07 11:11:47;;;;;;;;;;;;;;;37.71;21.40;101185.59;4980042;27;99327;-63
2022/05/07 11:14:23;;;;;;;;;;;;;;;37.05;21.45;101185.38;4983867;27;98176;-63
2022/05/07 11:16:49;;;;;;;;;;;;;;;36.51;21.84;101190.44;4976259;27;98488;-63
2022/05/07 11:19:34;;;;;;;;;;;;;;;36.07;21.99;101178.34;4977291;27;98202;-63
2022/05/07 11:22:02;;;;;;;;;;;;;;;35.62;22.24;101184.22;4976994;27;98243;-63
2022/05/07 11:24:28;;;;;;;;;;;;;;;35.26;22.51;101183.91;4978580;27;98304;-63
2022/05/07 11:26:56;;;;;;;;;;;;;;;34.93;22.74;101184.25;4977867;27;97991;-63
2022/05/07 11:29:22;;;;;;;;;;;;;;;34.65;22.90;101187.38;4985890;27;98083;-63
2022/05/07 11:32:07;;;;;;;;;;;;;;;34.40;22.64;101191.19;4978660;27;127176;-63
2022/05/07 11:34:34;;;;;;;;;;;;;;;34.18;22.73;101195.38;4978276;27;99453;-63
2022/05/07 11:37:20;;;;;;;;;;;;;;;34.03;23.07;101197.47;4980714;27;112025;-63
2022/05/07 11:39:55;;;;;;;;;;;;;;;33.95;23.48;101193.91;4980160;27;97779;-63
2022/05/07 11:42:30;;;;;;;;;;;;;;;33.94;23.06;101197.13;4985968;27;98829;-63
2022/05/07 11:47:54;;;;;;;;;;;;;;;34.28;23.39;101186.09;4982032;27;98111;-63
2022/05/07 11:50:25;;;;;;;;;;;;;;;34.46;23.07;101180.34;4979594;27;97976;-63
2022/05/07 11:52:51;;;;;;;;;;;;;;;35.31;22.75;101177.84;4979409;27;99055;-63
2022/05/07 11:55:22;;;;;;;;;;;;;;;35.33;22.42;101179.00;4979609;27;98221;-64
2022/05/07 11:57:48;;;;;;;;;;;;;;;35.97;22.38;101171.69;4979576;27;125553;-63
2022/05/07 12:00:19;;;;;;;;;;;;;;;35.72;22.72;101182.47;4981145;27;98410;-63
2022/05/07 12:02:53;;;;;;;;;;;;;;;35.58;22.74;101173.06;4989459;27;97985;-63
2022/05/07 12:05:21;;;;;;;;;;;;;;;35.80;22.27;101172.75;4979357;27;98514;-63
2022/05/07 12:07:49;;;;;;;;;;;;;;;36.12;22.18;101167.44;4980512;27;110129;-64
2022/05/07 12:10:15;;;;;;;;;;;;;;;36.87;21.74;101165.28;4979623;27;97777;-63
2022/05/07 12:12:41;;;;;;;;;;;;;;;37.40;21.59;101171.00;4980198;27;102014;-63
2022/05/07 12:15:08;;;;;;;;;;;;;;;37.71;21.00;101171.53;4978253;27;129089;-64
2022/05/07 12:17:52;;;;;;;;;;;;;;;37.93;21.44;101166.22;4979993;27;125027;-63
2022/05/07 12:20:20;;;;;;;;;;;;;;;37.66;21.72;101167.22;4979808;27;98064;-64
2022/05/07 12:31:14;;;;;;;;;;;;;;;38.21;21.42;101153.44;4978632;27;98037;-63
2022/05/07 12:33:40;;;;;;;;;;;;;;;38.26;20.89;101142.44;4977115;27;98438;-63
2022/05/07 12:36:06;;;;;;;;;;;;;;;38.33;21.24;101146.28;4978764;27;97786;-63
2022/05/07 12:38:32;;;;;;;;;;;;;;;38.38;21.27;101151.41;4978664;27;120839;-63
2022/05/07 12:40:58;;;;;;;;;;;;;;;38.40;21.10;101146.09;4986147;27;98006;-63
2022/05/07 12:43:24;;;;;;;;;;;;;;;38.37;20.90;101139.38;4978815;27;98357;-63
2022/05/07 12:45:50;;;;;;;;;;;;;;;38.39;20.84;101148.13;4977737;27;128152;-63
2022/05/07 12:48:17;;;;;;;;;;;;;;;38.41;21.07;101140.06;4979289;27;98083;-63
2022/05/07 12:50:43;;;;;;;;;;;;;;;38.45;21.03;101137.16;4979761;27;98004;-64
2022/05/07 12:53:10;;;;;;;;;;;;;;;38.50;20.89;101130.97;4982093;27;98728;-64
2022/05/07 12:55:36;;;;;;;;;;;;;;;37.76;20.90;101123.97;4979334;27;98292;-63
2022/05/07 12:58:04;;;;;;;;;;;;;;;37.16;21.24;101116.97;4977345;27;128479;-63
2022/05/07 13:00:30;;;;;;;;;;;;;;;36.78;21.40;101120.91;4985736;27;97781;-63
2022/05/07 13:03:00;;;;;;;;;;;;;;;36.55;21.44;101116.19;4978682;27;99143;-63
2022/05/07 13:05:26;;;;;;;;;;;;;;;36.26;21.62;101113.09;4978793;27;98310;-63
2022/05/07 13:07:52;;;;;;;;;;;;;;;36.47;21.39;101111.94;4978750;27;98156;-63
2022/05/07 13:10:18;;;;;;;;;;;;;;;36.54;21.53;101111.78;4978474;27;116423;-63
2022/05/07 13:12:46;;;;;;;;;;;;;;;36.57;21.54;101107.31;4979843;27;127658;-63
2022/05/07 13:15:12;;;;;;;;;;;;;;;35.90;21.90;101101.69;4977750;27;99117;-63
2022/05/07 13:17:38;;;;;;;;;;;;;;;35.26;22.42;101097.06;4979192;27;98021;-63
2022/05/07 13:20:05;;;;;;;;;;;;;;;35.09;21.99;101093.28;4977091;27;119106;-63